createdAt,value
2019-03-04T00:00:10.672Z,13.78
2019-03-04T00:01:10.661Z,14.00
2019-03-04T00:02:10.652Z,14.34
2019-03-04T00:03:10.639Z,14.67
2019-03-04T00:04:10.583Z,14.86
2019-03-04T00:05:10.619Z,14.85
2019-03-04T00:06:10.612Z,14.80
2019-03-04T00:07:10.599Z,14.77
2019-03-04T00:08:10.586Z,14.72
2019-03-04T00:09:10.579Z,14.60
2019-03-04T00:10:10.565Z,14.39
2019-03-04T00:11:10.558Z,13.70
2019-03-04T00:12:10.544Z,13.64
2019-03-04T00:13:10.538Z,13.68
2019-03-04T00:14:10.523Z,13.80
2019-03-04T00:15:10.514Z,13.98
2019-03-04T00:16:10.503Z,13.97
2019-03-04T00:17:10.492Z,14.01
2019-03-04T00:18:10.478Z,13.61
2019-03-04T00:19:10.468Z,13.32
2019-03-04T00:20:10.460Z,13.06
2019-03-04T00:21:10.448Z,12.74
2019-03-04T00:22:10.354Z,12.47
2019-03-04T00:23:10.427Z,11.93
2019-03-04T00:24:10.424Z,11.49
2019-03-04T00:25:10.409Z,11.06
2019-03-04T00:26:10.394Z,10.57
2019-03-04T00:27:10.386Z,10.26
2019-03-04T00:28:10.373Z,10.06
2019-03-04T00:29:10.368Z,9.82
2019-03-04T00:30:10.354Z,9.48
2019-03-04T00:31:10.343Z,9.20
2019-03-04T00:32:10.331Z,8.90
2019-03-04T00:33:10.323Z,8.62
2019-03-04T00:34:10.405Z,8.51
2019-03-04T00:35:10.303Z,8.24
2019-03-04T00:36:10.291Z,8.09
2019-03-04T00:37:10.287Z,8.07
2019-03-04T00:38:10.269Z,7.96
2019-03-04T00:39:10.264Z,7.92
2019-03-04T00:41:10.238Z,7.83
2019-03-04T00:42:10.227Z,7.84
2019-03-04T00:43:10.219Z,7.91
2019-03-04T00:44:10.209Z,7.84
2019-03-04T00:45:10.195Z,8.09
2019-03-04T00:46:10.185Z,8.51
2019-03-04T00:47:10.173Z,8.55
2019-03-04T00:48:10.164Z,8.72
2019-03-04T00:50:10.169Z,9.04
2019-03-04T00:51:10.217Z,9.09
2019-03-04T00:52:10.122Z,8.87
2019-03-04T00:53:10.112Z,8.72
2019-03-04T00:54:10.332Z,8.96
2019-03-04T00:55:10.092Z,9.38
2019-03-04T00:56:10.083Z,10.61
2019-03-04T00:57:10.070Z,11.49
2019-03-04T00:58:10.057Z,12.38
2019-03-04T00:59:10.051Z,13.04
2019-03-04T01:00:10.085Z,13.54
2019-03-04T01:01:10.041Z,14.03
2019-03-04T01:02:10.018Z,14.28
2019-03-04T01:03:10.007Z,14.49
2019-03-04T01:04:10.000Z,14.49
2019-03-04T01:05:09.988Z,14.54
2019-03-04T01:06:09.976Z,14.57
2019-03-04T01:07:09.964Z,14.29
2019-03-04T01:08:09.953Z,13.98
2019-03-04T01:09:10.043Z,13.35
2019-03-04T01:10:09.933Z,12.63
2019-03-04T01:11:09.924Z,12.37
2019-03-04T01:12:09.910Z,11.96
2019-03-04T01:13:09.905Z,11.47
2019-03-04T01:14:09.958Z,10.88
2019-03-04T01:15:09.967Z,10.32
2019-03-04T01:16:10.223Z,9.79
2019-03-04T01:17:09.858Z,9.88
2019-03-04T01:18:09.848Z,10.07
2019-03-04T01:19:09.838Z,10.21
2019-03-04T01:20:09.827Z,10.39
2019-03-04T01:21:09.818Z,10.36
2019-03-04T01:22:09.807Z,10.21
2019-03-04T01:23:09.794Z,9.81
2019-03-04T01:24:09.785Z,9.51
2019-03-04T01:25:09.773Z,9.24
2019-03-04T01:26:09.764Z,8.96
2019-03-04T01:27:09.754Z,9.34
2019-03-04T01:28:09.741Z,9.82
2019-03-04T01:29:09.729Z,10.07
2019-03-04T01:30:09.722Z,10.28
2019-03-04T01:31:09.710Z,10.64
2019-03-04T01:32:09.703Z,10.97
2019-03-04T01:33:09.689Z,11.24
2019-03-04T01:34:09.678Z,11.72
2019-03-04T01:35:09.668Z,12.19
2019-03-04T01:36:09.657Z,12.77
2019-03-04T01:37:09.652Z,12.75
2019-03-04T01:38:09.634Z,12.77
2019-03-04T01:39:09.625Z,12.97
2019-03-04T01:40:09.615Z,12.95
2019-03-04T01:41:09.604Z,13.22
2019-03-04T01:42:09.594Z,13.53
2019-03-04T01:43:09.586Z,13.69
2019-03-04T01:44:09.572Z,13.91
2019-03-04T01:45:09.496Z,14.17
2019-03-04T01:46:09.553Z,14.42
2019-03-04T01:47:09.541Z,14.69
2019-03-04T01:48:09.534Z,14.89
2019-03-04T01:49:09.523Z,14.98
2019-03-04T01:50:09.506Z,14.93
2019-03-04T01:51:09.501Z,14.65
2019-03-04T01:52:09.567Z,13.79
2019-03-04T01:53:09.478Z,12.71
2019-03-04T01:54:09.468Z,11.89
2019-03-04T01:55:09.713Z,11.18
2019-03-04T01:56:09.448Z,10.61
2019-03-04T01:57:09.437Z,10.24
2019-03-04T01:58:09.427Z,9.83
2019-03-04T01:59:09.419Z,9.37
2019-03-04T02:00:09.408Z,9.09
2019-03-04T02:01:09.396Z,9.04
2019-03-04T02:02:09.384Z,8.69
2019-03-04T02:03:09.379Z,8.44
2019-03-04T02:04:09.364Z,8.21
2019-03-04T02:05:09.353Z,8.11
2019-03-04T02:06:09.343Z,8.01
2019-03-04T02:07:09.330Z,8.13
2019-03-04T02:08:09.325Z,8.66
2019-03-04T02:09:09.313Z,9.26
2019-03-04T02:10:09.300Z,9.66
2019-03-04T02:11:09.291Z,9.75
2019-03-04T02:12:09.279Z,10.00
2019-03-04T02:13:09.267Z,10.28
2019-03-04T02:14:09.258Z,10.50
2019-03-04T02:15:09.249Z,10.77
2019-03-04T02:16:09.239Z,11.01
2019-03-04T02:17:09.230Z,11.38
2019-03-04T02:18:09.214Z,12.10
2019-03-04T02:19:09.208Z,12.74
2019-03-04T02:20:09.196Z,13.50
2019-03-04T02:21:09.184Z,13.61
2019-03-04T02:22:09.175Z,13.50
2019-03-04T02:23:09.163Z,13.11
2019-03-04T02:24:09.152Z,12.75
2019-03-04T02:25:09.146Z,12.43
2019-03-04T02:26:09.136Z,11.98
2019-03-04T02:27:09.207Z,11.77
2019-03-04T02:28:09.111Z,11.72
2019-03-04T02:29:09.100Z,11.52
2019-03-04T02:30:09.096Z,11.53
2019-03-04T02:31:09.078Z,11.41
2019-03-04T02:32:09.073Z,11.38
2019-03-04T02:33:09.063Z,11.35
2019-03-04T02:34:09.046Z,11.44
2019-03-04T02:35:09.035Z,11.47
2019-03-04T02:36:09.025Z,11.80
2019-03-04T02:37:09.015Z,11.87
2019-03-04T02:38:09.004Z,11.96
2019-03-04T02:39:08.995Z,11.96
2019-03-04T02:40:08.983Z,11.98
2019-03-04T02:41:09.023Z,12.15
2019-03-04T02:42:08.959Z,12.28
2019-03-04T02:43:08.948Z,12.47
2019-03-04T02:44:08.935Z,12.75
2019-03-04T02:45:08.928Z,13.06
2019-03-04T02:46:08.950Z,13.39
2019-03-04T02:47:09.213Z,13.79
2019-03-04T02:48:08.897Z,13.98
2019-03-04T02:49:08.951Z,14.12
2019-03-04T02:50:08.876Z,14.42
2019-03-04T02:51:08.863Z,14.62
2019-03-04T02:52:08.857Z,15.05
2019-03-04T02:53:08.842Z,15.37
2019-03-04T02:54:08.832Z,15.63
2019-03-04T02:55:08.822Z,16.15
2019-03-04T02:56:09.211Z,16.72
2019-03-04T02:57:08.899Z,17.06
2019-03-04T02:58:08.890Z,17.33
2019-03-04T02:59:08.787Z,17.48
2019-03-04T03:00:08.873Z,17.57
2019-03-04T03:01:08.759Z,17.73
2019-03-04T03:02:08.751Z,17.86
2019-03-04T03:03:08.745Z,17.94
2019-03-04T03:04:08.733Z,18.14
2019-03-04T03:05:08.724Z,18.21
2019-03-04T03:06:08.710Z,18.42
2019-03-04T03:07:08.695Z,18.46
2019-03-04T03:08:08.688Z,18.54
2019-03-04T03:09:08.680Z,18.82
2019-03-04T03:10:08.667Z,18.84
2019-03-04T03:11:08.676Z,18.84
2019-03-04T03:12:08.644Z,18.94
2019-03-04T03:13:08.636Z,19.10
2019-03-04T03:14:08.624Z,19.22
2019-03-04T03:15:08.612Z,18.58
2019-03-04T03:16:08.606Z,18.12
2019-03-04T03:17:08.591Z,17.80
2019-03-04T03:18:08.585Z,17.26
2019-03-04T03:19:08.572Z,16.79
2019-03-04T03:20:08.557Z,16.57
2019-03-04T03:21:08.548Z,16.58
2019-03-04T03:22:08.536Z,17.18
2019-03-04T03:23:08.525Z,17.59
2019-03-04T03:24:08.514Z,18.08
2019-03-04T03:25:08.502Z,18.50
2019-03-04T03:26:08.497Z,18.82
2019-03-04T03:27:08.482Z,19.45
2019-03-04T03:28:08.474Z,19.53
2019-03-04T03:29:08.459Z,19.80
2019-03-04T03:30:08.450Z,20.02
2019-03-04T03:31:08.441Z,20.30
2019-03-04T03:32:08.436Z,20.41
2019-03-04T03:33:08.421Z,20.50
2019-03-04T03:34:08.409Z,20.88
2019-03-04T03:35:09.035Z,21.04
2019-03-04T03:36:08.385Z,21.30
2019-03-04T03:37:08.378Z,21.63
2019-03-04T03:38:08.365Z,21.75
2019-03-04T03:39:08.405Z,21.81
2019-03-04T03:40:08.346Z,22.09
2019-03-04T03:41:08.334Z,22.31
2019-03-04T03:42:08.329Z,22.46
2019-03-04T03:43:08.321Z,22.53
2019-03-04T03:44:08.303Z,22.78
2019-03-04T03:45:08.297Z,22.93
2019-03-04T03:46:08.291Z,23.01
2019-03-04T03:47:08.271Z,23.15
2019-03-04T03:48:08.271Z,23.29
2019-03-04T03:49:08.253Z,23.33
2019-03-04T03:50:08.249Z,23.48
2019-03-04T03:51:08.236Z,23.60
2019-03-04T03:52:08.320Z,23.44
2019-03-04T03:53:08.213Z,23.24
2019-03-04T03:54:08.202Z,23.11
2019-03-04T03:55:08.189Z,23.26
2019-03-04T03:56:08.179Z,23.30
2019-03-04T03:57:08.268Z,23.26
2019-03-04T03:58:08.233Z,23.26
2019-03-04T03:59:08.149Z,23.51
2019-03-04T04:00:08.143Z,23.63
2019-03-04T04:01:08.126Z,23.54
2019-03-04T04:02:08.119Z,23.57
2019-03-04T04:03:08.105Z,23.60
2019-03-04T04:04:08.107Z,23.34
2019-03-04T04:05:08.082Z,23.41
2019-03-04T04:06:08.078Z,23.45
2019-03-04T04:07:08.147Z,23.51
2019-03-04T04:08:08.055Z,23.57
2019-03-04T04:09:08.043Z,23.54
2019-03-04T04:10:08.031Z,23.64
2019-03-04T04:11:08.020Z,23.71
2019-03-04T04:12:08.008Z,24.07
2019-03-04T04:13:08.014Z,24.17
2019-03-04T04:14:07.991Z,24.22
2019-03-04T04:15:07.977Z,24.47
2019-03-04T04:16:07.970Z,24.53
2019-03-04T04:17:07.960Z,24.64
2019-03-04T04:18:07.950Z,24.72
2019-03-04T04:19:07.938Z,24.41
2019-03-04T04:20:07.930Z,24.38
2019-03-04T04:21:07.916Z,24.42
2019-03-04T04:22:07.909Z,24.44
2019-03-04T04:23:07.893Z,24.68
2019-03-04T04:24:07.886Z,24.60
2019-03-04T04:25:07.875Z,24.50
2019-03-04T04:26:07.865Z,24.47
2019-03-04T04:27:07.853Z,24.54
2019-03-04T04:28:07.843Z,24.75
2019-03-04T04:29:07.852Z,24.97
2019-03-04T04:30:07.826Z,25.09
2019-03-04T04:31:07.811Z,25.38
2019-03-04T04:32:07.805Z,25.47
2019-03-04T04:33:07.793Z,25.11
2019-03-04T04:34:07.780Z,24.94
2019-03-04T04:35:07.770Z,25.04
2019-03-04T04:36:07.739Z,25.05
2019-03-04T04:37:07.746Z,25.23
2019-03-04T04:38:07.738Z,25.41
2019-03-04T04:39:07.726Z,25.37
2019-03-04T04:40:07.717Z,25.24
2019-03-04T04:41:07.705Z,25.08
2019-03-04T04:42:07.703Z,24.76
2019-03-04T04:43:07.690Z,24.42
2019-03-04T04:44:07.676Z,24.31
2019-03-04T04:45:07.667Z,24.16
2019-03-04T04:46:07.651Z,24.13
2019-03-04T04:47:07.642Z,23.96
2019-03-04T04:48:07.630Z,24.23
2019-03-04T04:49:07.620Z,24.49
2019-03-04T04:50:07.606Z,24.60
2019-03-04T04:51:07.599Z,24.74
2019-03-04T04:52:07.689Z,24.82
2019-03-04T04:53:07.678Z,24.50
2019-03-04T04:54:07.571Z,24.74
2019-03-04T04:55:07.559Z,24.89
2019-03-04T04:56:07.545Z,24.74
2019-03-04T04:57:07.542Z,24.41
2019-03-04T04:58:07.523Z,24.37
2019-03-04T04:59:07.514Z,24.50
2019-03-04T05:00:07.508Z,24.41
2019-03-04T05:01:07.491Z,24.34
2019-03-04T05:02:07.483Z,24.37
2019-03-04T05:03:07.475Z,24.53
2019-03-04T05:04:07.461Z,24.71
2019-03-04T05:05:07.458Z,24.87
2019-03-04T05:06:07.441Z,25.06
2019-03-04T05:07:07.434Z,25.21
2019-03-04T05:08:07.423Z,25.18
2019-03-04T05:09:07.414Z,25.21
2019-03-04T05:10:07.402Z,25.31
2019-03-04T05:11:07.387Z,25.09
2019-03-04T05:12:07.382Z,24.72
2019-03-04T05:13:07.366Z,24.34
2019-03-04T05:14:07.359Z,23.78
2019-03-04T05:15:07.348Z,23.29
2019-03-04T05:16:07.336Z,23.17
2019-03-04T05:17:07.326Z,23.23
2019-03-04T05:18:07.313Z,23.46
2019-03-04T05:19:07.302Z,23.56
2019-03-04T05:20:07.295Z,23.49
2019-03-04T05:21:07.286Z,23.54
2019-03-04T05:22:07.271Z,23.17
2019-03-04T05:23:07.262Z,22.87
2019-03-04T05:24:07.252Z,22.46
2019-03-04T05:25:07.243Z,22.19
2019-03-04T05:26:07.230Z,22.00
2019-03-04T05:27:07.220Z,21.69
2019-03-04T05:28:07.218Z,21.35
2019-03-04T05:29:07.205Z,21.12
2019-03-04T05:30:07.221Z,20.73
2019-03-04T05:31:07.178Z,20.39
2019-03-04T05:32:07.167Z,20.38
2019-03-04T05:33:07.159Z,20.41
2019-03-04T05:34:07.145Z,20.38
2019-03-04T05:35:07.219Z,20.28
2019-03-04T05:36:07.125Z,19.98
2019-03-04T05:37:07.116Z,19.69
2019-03-04T05:38:07.105Z,19.46
2019-03-04T05:39:07.093Z,19.34
2019-03-04T05:40:07.082Z,19.16
2019-03-04T05:41:07.077Z,18.90
2019-03-04T05:42:07.062Z,18.87
2019-03-04T05:43:07.054Z,18.67
2019-03-04T05:44:07.040Z,18.55
2019-03-04T05:45:07.030Z,18.36
2019-03-04T05:46:07.026Z,18.30
2019-03-04T05:47:07.011Z,18.26
2019-03-04T05:48:07.704Z,18.20
2019-03-04T05:49:07.011Z,18.06
2019-03-04T05:50:06.882Z,17.96
2019-03-04T05:51:06.967Z,17.88
2019-03-04T05:52:06.955Z,17.88
2019-03-04T05:53:07.048Z,17.84
2019-03-04T05:54:06.936Z,17.96
2019-03-04T05:55:08.831Z,18.03
2019-03-04T05:56:06.916Z,17.99
2019-03-04T05:57:06.904Z,18.16
2019-03-04T05:58:06.894Z,18.12
2019-03-04T05:59:06.790Z,18.16
2019-03-04T06:00:06.876Z,18.09
2019-03-04T06:01:06.868Z,18.03
2019-03-04T06:02:06.853Z,17.88
2019-03-04T06:03:06.842Z,17.87
2019-03-04T06:04:06.831Z,18.08
2019-03-04T06:05:06.825Z,18.05
2019-03-04T06:06:06.811Z,18.14
2019-03-04T06:07:06.804Z,18.17
2019-03-04T06:08:06.791Z,18.27
2019-03-04T06:09:06.779Z,18.37
2019-03-04T06:10:07.070Z,18.61
2019-03-04T06:11:06.761Z,18.79
2019-03-04T06:12:06.752Z,18.73
2019-03-04T06:13:06.741Z,18.73
2019-03-04T06:14:06.728Z,18.68
2019-03-04T06:15:06.721Z,18.62
2019-03-04T06:16:06.708Z,18.62
2019-03-04T06:17:06.700Z,18.52
2019-03-04T06:18:06.690Z,18.40
2019-03-04T06:19:06.677Z,18.42
2019-03-04T06:20:06.666Z,18.30
2019-03-04T06:21:06.659Z,18.39
2019-03-04T06:22:06.645Z,18.40
2019-03-04T06:23:06.637Z,18.36
2019-03-04T06:24:06.626Z,18.27
2019-03-04T06:25:07.483Z,18.17
2019-03-04T06:26:06.605Z,18.16
2019-03-04T06:27:06.595Z,18.16
2019-03-04T06:28:06.595Z,18.26
2019-03-04T06:29:06.575Z,18.46
2019-03-04T06:30:06.566Z,18.72
2019-03-04T06:31:06.555Z,18.74
2019-03-04T06:32:06.544Z,19.05
2019-03-04T06:33:06.831Z,18.97
2019-03-04T06:34:06.520Z,19.13
2019-03-04T06:35:06.515Z,19.27
2019-03-04T06:36:06.501Z,19.34
2019-03-04T06:37:06.494Z,19.35
2019-03-04T06:38:06.479Z,19.42
2019-03-04T06:39:06.472Z,19.47
2019-03-04T06:40:06.466Z,19.52
2019-03-04T06:41:06.448Z,19.54
2019-03-04T06:42:06.440Z,19.50
2019-03-04T06:43:06.430Z,19.54
2019-03-04T06:44:06.421Z,19.42
2019-03-04T06:45:06.408Z,19.37
2019-03-04T06:46:06.399Z,19.27
2019-03-04T06:47:06.393Z,19.31
2019-03-04T06:48:06.386Z,19.39
2019-03-04T06:49:06.379Z,19.39
2019-03-04T06:50:06.369Z,19.42
2019-03-04T06:51:06.368Z,19.32
2019-03-04T06:52:06.341Z,19.28
2019-03-04T06:53:06.427Z,19.17
2019-03-04T06:54:06.438Z,19.04
2019-03-04T06:55:06.315Z,18.91
2019-03-04T06:56:06.295Z,18.92
2019-03-04T06:57:06.281Z,19.02
2019-03-04T06:58:06.273Z,18.91
2019-03-04T06:59:06.264Z,18.82
2019-03-04T07:00:06.252Z,18.82
2019-03-04T07:01:06.242Z,18.87
2019-03-04T07:02:06.230Z,18.76
2019-03-04T07:03:06.218Z,18.76
2019-03-04T07:04:06.213Z,18.80
2019-03-04T07:05:06.196Z,18.95
2019-03-04T07:06:06.189Z,19.17
2019-03-04T07:07:06.179Z,19.13
2019-03-04T07:08:06.164Z,19.22
2019-03-04T07:09:06.254Z,19.20
2019-03-04T07:10:06.146Z,19.17
2019-03-04T07:11:06.134Z,19.10
2019-03-04T07:12:06.130Z,19.05
2019-03-04T07:13:06.111Z,18.92
2019-03-04T07:14:06.106Z,18.74
2019-03-04T07:15:06.132Z,18.59
2019-03-04T07:16:06.082Z,18.58
2019-03-04T07:17:06.074Z,18.61
2019-03-04T07:18:06.060Z,18.72
2019-03-04T07:19:06.078Z,18.73
2019-03-04T07:20:06.038Z,18.58
2019-03-04T07:21:05.949Z,18.76
2019-03-04T07:22:06.019Z,18.76
2019-03-04T07:23:06.058Z,18.72
2019-03-04T07:24:05.996Z,18.98
2019-03-04T07:25:05.988Z,19.12
2019-03-04T07:26:05.976Z,19.19
2019-03-04T07:27:05.998Z,18.94
2019-03-04T07:28:05.950Z,18.97
2019-03-04T07:29:05.941Z,18.79
2019-03-04T07:30:05.933Z,18.82
2019-03-04T07:31:05.916Z,19.02
2019-03-04T07:32:05.910Z,19.13
2019-03-04T07:33:05.895Z,19.22
2019-03-04T07:34:05.889Z,19.17
2019-03-04T07:35:05.876Z,19.12
2019-03-04T07:36:08.023Z,18.92
2019-03-04T07:37:05.859Z,18.62
2019-03-04T07:38:05.847Z,18.57
2019-03-04T07:39:05.835Z,18.79
2019-03-04T07:40:05.821Z,18.99
2019-03-04T07:41:05.813Z,19.20
2019-03-04T07:42:05.808Z,19.45
2019-03-04T07:43:05.869Z,19.78
2019-03-04T07:44:05.783Z,19.91
2019-03-04T07:45:05.767Z,20.09
2019-03-04T07:46:05.760Z,20.18
2019-03-04T07:47:05.747Z,19.98
2019-03-04T07:48:05.734Z,19.95
2019-03-04T07:49:05.726Z,20.00
2019-03-04T07:50:05.715Z,19.95
2019-03-04T07:51:05.702Z,19.90
2019-03-04T07:52:05.694Z,19.87
2019-03-04T07:53:05.684Z,19.88
2019-03-04T07:54:05.772Z,19.95
2019-03-04T07:55:05.661Z,19.93
2019-03-04T07:56:05.657Z,19.87
2019-03-04T07:57:05.640Z,20.00
2019-03-04T07:58:05.622Z,19.57
2019-03-04T07:59:05.614Z,19.34
2019-03-04T08:00:05.602Z,19.41
2019-03-04T08:01:05.594Z,19.20
2019-03-04T08:02:05.584Z,19.01
2019-03-04T08:03:05.573Z,18.95
2019-03-04T08:04:05.567Z,19.22
2019-03-04T08:05:05.549Z,19.39
2019-03-04T08:06:05.542Z,19.41
2019-03-04T08:07:05.527Z,19.37
2019-03-04T08:08:05.519Z,19.34
2019-03-04T08:09:05.506Z,19.12
2019-03-04T08:10:05.498Z,18.91
2019-03-04T08:11:05.487Z,18.99
2019-03-04T08:12:05.472Z,19.09
2019-03-04T08:13:05.473Z,19.12
2019-03-04T08:14:05.452Z,19.32
2019-03-04T08:15:05.446Z,19.17
2019-03-04T08:16:05.438Z,18.67
2019-03-04T08:17:05.419Z,18.74
2019-03-04T08:18:05.417Z,18.65
2019-03-04T08:19:05.399Z,19.07
2019-03-04T08:20:05.391Z,19.05
2019-03-04T08:21:05.377Z,19.07
2019-03-04T08:22:05.366Z,18.99
2019-03-04T08:23:05.358Z,18.98
2019-03-04T08:24:05.344Z,19.14
2019-03-04T08:25:05.337Z,19.04
2019-03-04T08:26:05.325Z,18.91
2019-03-04T08:27:05.314Z,18.76
2019-03-04T08:28:05.303Z,18.73
2019-03-04T08:29:05.295Z,18.67
2019-03-04T08:30:05.277Z,19.05
2019-03-04T08:31:05.272Z,18.97
2019-03-04T08:32:05.259Z,18.77
2019-03-04T08:33:05.248Z,18.80
2019-03-04T08:34:05.238Z,18.77
2019-03-04T08:35:05.226Z,18.64
2019-03-04T08:36:05.218Z,18.47
2019-03-04T08:37:05.206Z,18.39
2019-03-04T08:38:05.195Z,18.57
2019-03-04T08:39:05.183Z,18.44
2019-03-04T08:40:05.172Z,18.59
2019-03-04T08:41:05.163Z,18.72
2019-03-04T08:42:05.151Z,18.61
2019-03-04T08:43:05.139Z,18.54
2019-03-04T08:44:05.132Z,18.37
2019-03-04T08:45:05.121Z,18.74
2019-03-04T08:46:05.112Z,18.76
2019-03-04T08:47:05.100Z,18.65
2019-03-04T08:48:05.087Z,18.74
2019-03-04T08:49:05.079Z,18.70
2019-03-04T08:50:05.067Z,18.76
2019-03-04T08:51:05.059Z,18.77
2019-03-04T08:52:05.046Z,18.59
2019-03-04T08:53:05.038Z,18.43
2019-03-04T08:54:05.027Z,18.49
2019-03-04T08:55:05.414Z,18.37
2019-03-04T08:56:05.074Z,18.50
2019-03-04T08:57:04.996Z,18.59
2019-03-04T08:58:05.087Z,18.46
2019-03-04T08:59:04.974Z,18.39
2019-03-04T09:00:05.063Z,18.52
2019-03-04T09:01:04.952Z,18.61
2019-03-04T09:02:04.941Z,18.76
2019-03-04T09:03:04.930Z,18.82
2019-03-04T09:04:04.919Z,18.95
2019-03-04T09:05:04.910Z,19.19
2019-03-04T09:06:04.900Z,19.42
2019-03-04T09:07:04.891Z,19.79
2019-03-04T09:08:04.876Z,20.03
2019-03-04T09:09:04.906Z,20.20
2019-03-04T09:10:04.857Z,20.46
2019-03-04T09:11:04.849Z,20.53
2019-03-04T09:12:04.840Z,20.46
2019-03-04T09:13:04.826Z,20.49
2019-03-04T09:14:04.816Z,20.53
2019-03-04T09:15:04.870Z,20.52
2019-03-04T09:16:04.790Z,20.38
2019-03-04T09:17:04.780Z,20.05
2019-03-04T09:18:04.769Z,19.90
2019-03-04T09:19:04.757Z,19.62
2019-03-04T09:20:04.755Z,19.71
2019-03-04T09:21:04.736Z,19.65
2019-03-04T09:22:04.730Z,19.62
2019-03-04T09:23:04.720Z,19.45
2019-03-04T09:24:04.708Z,19.60
2019-03-04T09:25:04.700Z,19.68
2019-03-04T09:26:04.686Z,19.98
2019-03-04T09:27:04.677Z,19.91
2019-03-04T09:28:04.663Z,20.06
2019-03-04T09:29:04.652Z,19.71
2019-03-04T09:30:04.644Z,19.34
2019-03-04T09:31:04.633Z,17.96
2019-03-04T09:32:04.620Z,17.22
2019-03-04T09:33:04.609Z,16.66
2019-03-04T09:34:04.601Z,14.80
2019-03-04T09:35:04.585Z,15.34
2019-03-04T09:36:04.576Z,15.79
2019-03-04T09:37:05.194Z,16.99
2019-03-04T09:38:04.556Z,17.83
2019-03-04T09:39:04.542Z,17.22
2019-03-04T09:40:04.537Z,17.46
2019-03-04T09:41:04.524Z,15.66
2019-03-04T09:42:04.515Z,14.28
2019-03-04T09:43:04.506Z,13.14
2019-03-04T09:44:04.498Z,12.63
2019-03-04T09:45:04.478Z,12.55
2019-03-04T09:46:04.468Z,12.45
2019-03-04T09:47:04.456Z,12.30
2019-03-04T09:48:04.448Z,12.22
2019-03-04T09:49:04.435Z,12.07
2019-03-04T09:50:04.439Z,11.85
2019-03-04T09:51:04.418Z,11.71
2019-03-04T09:52:04.506Z,11.74
2019-03-04T09:53:04.399Z,11.86
2019-03-04T09:54:04.387Z,11.65
2019-03-04T09:55:04.378Z,11.87
2019-03-04T09:56:04.464Z,11.77
2019-03-04T09:57:04.356Z,11.59
2019-03-04T09:58:04.341Z,11.86
2019-03-04T09:59:04.344Z,11.78
2019-03-04T10:00:04.324Z,11.78
2019-03-04T10:01:04.308Z,11.98
2019-03-04T10:02:04.300Z,11.89
2019-03-04T10:03:04.294Z,11.89
2019-03-04T10:04:04.276Z,12.01
2019-03-04T10:05:04.266Z,11.74
2019-03-04T10:06:04.255Z,11.56
2019-03-04T10:07:04.250Z,11.53
2019-03-04T10:08:04.238Z,11.57
2019-03-04T10:09:04.220Z,11.61
2019-03-04T10:10:04.292Z,11.61
2019-03-04T10:11:04.258Z,11.75
2019-03-04T10:12:04.195Z,11.70
2019-03-04T10:13:04.222Z,11.83
2019-03-04T10:14:04.135Z,11.89
2019-03-04T10:15:08.474Z,12.00
2019-03-04T10:16:04.150Z,12.23
2019-03-04T10:17:04.230Z,12.14
2019-03-04T10:18:04.131Z,12.18
2019-03-04T10:19:04.150Z,12.00
2019-03-04T10:20:04.108Z,11.86
2019-03-04T10:21:04.098Z,11.86
2019-03-04T10:22:04.088Z,11.98
2019-03-04T10:23:04.081Z,11.96
2019-03-04T10:24:04.067Z,11.89
2019-03-04T10:25:04.056Z,11.83
2019-03-04T10:26:04.044Z,11.80
2019-03-04T10:27:04.035Z,11.67
2019-03-04T10:28:04.023Z,11.72
2019-03-04T10:29:04.312Z,11.77
2019-03-04T10:30:04.005Z,11.77
2019-03-04T10:31:03.990Z,11.86
2019-03-04T10:32:03.984Z,11.95
2019-03-04T10:33:03.977Z,12.18
2019-03-04T10:34:03.962Z,12.37
2019-03-04T10:35:03.951Z,12.44
2019-03-04T10:36:04.240Z,12.30
2019-03-04T10:37:03.927Z,12.22
2019-03-04T10:38:03.931Z,12.19
2019-03-04T10:39:03.907Z,12.20
2019-03-04T10:40:03.904Z,12.15
2019-03-04T10:41:03.886Z,12.33
2019-03-04T10:42:03.881Z,12.38
2019-03-04T10:43:03.866Z,12.23
2019-03-04T10:44:03.858Z,12.40
2019-03-04T10:45:03.859Z,12.41
2019-03-04T10:46:03.841Z,12.51
2019-03-04T10:47:03.828Z,12.66
2019-03-04T10:48:03.818Z,12.71
2019-03-04T10:49:03.811Z,12.92
2019-03-04T10:50:03.794Z,12.85
2019-03-04T10:51:03.778Z,12.79
2019-03-04T10:52:03.769Z,12.84
2019-03-04T10:53:04.013Z,12.71
2019-03-04T10:54:03.758Z,12.85
2019-03-04T10:55:03.743Z,12.96
2019-03-04T10:56:03.731Z,12.97
2019-03-04T10:57:03.722Z,12.96
2019-03-04T10:58:03.706Z,12.92
2019-03-04T10:59:03.710Z,12.95
2019-03-04T11:00:03.684Z,12.95
2019-03-04T11:01:03.686Z,12.79
2019-03-04T11:02:03.663Z,12.88
2019-03-04T11:03:03.660Z,12.89
2019-03-04T11:04:03.645Z,12.84
2019-03-04T11:05:03.637Z,12.95
2019-03-04T11:06:03.622Z,12.88
2019-03-04T11:07:03.618Z,12.92
2019-03-04T11:08:03.604Z,12.85
2019-03-04T11:09:03.599Z,12.81
2019-03-04T11:10:03.584Z,12.78
2019-03-04T11:11:03.569Z,12.74
2019-03-04T11:12:03.568Z,12.74
2019-03-04T11:13:03.550Z,12.85
2019-03-04T11:14:03.538Z,12.71
2019-03-04T11:15:03.527Z,12.79
2019-03-04T11:16:03.516Z,12.75
2019-03-04T11:17:03.528Z,12.75
2019-03-04T11:18:03.498Z,12.79
2019-03-04T11:19:03.496Z,12.77
2019-03-04T11:20:03.477Z,12.75
2019-03-04T11:21:03.469Z,12.75
2019-03-04T11:22:03.457Z,12.77
2019-03-04T11:23:03.445Z,12.85
2019-03-04T11:24:03.438Z,12.77
2019-03-04T11:25:03.426Z,12.75
2019-03-04T11:26:03.416Z,12.85
2019-03-04T11:27:03.401Z,12.93
2019-03-04T11:28:03.388Z,12.88
2019-03-04T11:29:03.380Z,12.95
2019-03-04T11:30:03.373Z,12.89
2019-03-04T11:31:03.362Z,12.99
2019-03-04T11:32:03.353Z,13.02
2019-03-04T11:33:03.954Z,13.12
2019-03-04T11:34:03.331Z,13.12
2019-03-04T11:35:03.391Z,13.02
2019-03-04T11:36:03.309Z,12.96
2019-03-04T11:37:03.297Z,12.96
2019-03-04T11:38:03.289Z,13.03
2019-03-04T11:39:03.368Z,13.11
2019-03-04T11:40:03.272Z,13.35
2019-03-04T11:41:03.264Z,13.40
2019-03-04T11:42:03.251Z,13.42
2019-03-04T11:43:03.239Z,13.25
2019-03-04T11:44:03.226Z,13.21
2019-03-04T11:45:03.216Z,13.09
2019-03-04T11:46:03.202Z,13.07
2019-03-04T11:47:03.192Z,13.04
2019-03-04T11:48:03.183Z,13.02
2019-03-04T11:49:03.178Z,12.92
2019-03-04T11:50:03.161Z,13.06
2019-03-04T11:51:03.149Z,13.15
2019-03-04T11:52:03.144Z,13.06
2019-03-04T11:53:03.134Z,13.02
2019-03-04T11:54:03.523Z,12.87
2019-03-04T11:55:03.104Z,12.77
2019-03-04T11:56:03.095Z,12.63
2019-03-04T11:57:03.080Z,12.47
2019-03-04T11:58:03.071Z,12.53
2019-03-04T11:59:03.063Z,12.36
2019-03-04T12:00:03.053Z,12.28
2019-03-04T12:01:03.049Z,12.29
2019-03-04T12:02:03.032Z,12.32
2019-03-04T12:03:03.022Z,12.23
2019-03-04T12:04:03.008Z,12.38
2019-03-04T12:05:02.998Z,12.67
2019-03-04T12:06:02.988Z,12.87
2019-03-04T12:07:02.980Z,12.81
2019-03-04T12:08:02.969Z,12.77
2019-03-04T12:09:02.957Z,12.47
2019-03-04T12:10:02.944Z,12.47
2019-03-04T12:11:02.935Z,12.29
2019-03-04T12:12:02.921Z,12.32
2019-03-04T12:13:02.910Z,12.44
2019-03-04T12:14:03.317Z,12.84
2019-03-04T12:15:02.890Z,13.07
2019-03-04T12:16:02.880Z,13.62
2019-03-04T12:17:02.865Z,13.75
2019-03-04T12:18:02.860Z,13.68
2019-03-04T12:19:02.849Z,13.87
2019-03-04T12:20:02.838Z,14.29
2019-03-04T12:21:02.827Z,14.80
2019-03-04T12:22:02.813Z,14.97
2019-03-04T12:23:02.802Z,15.42
2019-03-04T12:24:02.793Z,15.94
2019-03-04T12:25:02.784Z,16.32
2019-03-04T12:26:02.773Z,16.41
2019-03-04T12:27:02.764Z,16.61
2019-03-04T12:28:02.754Z,16.84
2019-03-04T12:29:02.740Z,16.93
2019-03-04T12:30:02.728Z,17.11
2019-03-04T12:31:02.721Z,16.72
2019-03-04T12:32:02.706Z,16.25
2019-03-04T12:33:02.695Z,15.72
2019-03-04T12:34:02.686Z,15.64
2019-03-04T12:35:02.680Z,15.66
2019-03-04T12:36:02.666Z,15.68
2019-03-04T12:37:02.652Z,15.89
2019-03-04T12:38:02.742Z,16.22
2019-03-04T12:39:02.634Z,16.34
2019-03-04T12:40:02.624Z,16.26
2019-03-04T12:41:02.611Z,16.30
2019-03-04T12:42:02.599Z,16.21
2019-03-04T12:43:02.591Z,15.67
2019-03-04T12:44:02.649Z,15.26
2019-03-04T12:45:02.475Z,14.75
2019-03-04T12:46:02.474Z,14.31
2019-03-04T12:47:02.554Z,13.98
2019-03-04T12:48:02.536Z,13.73
2019-03-04T12:49:02.491Z,13.68
2019-03-04T12:50:02.511Z,13.60
2019-03-04T12:51:02.511Z,13.54
2019-03-04T12:52:02.496Z,13.50
2019-03-04T12:53:02.480Z,13.53
2019-03-04T12:54:02.477Z,13.45
2019-03-04T12:55:02.705Z,13.29
2019-03-04T12:56:02.451Z,13.29